Pampa, TX

12:21 PM CST on February 11, 2016 (GMT -0600)
Perry Lefors | | Change Station
CLOSE
Current Station
Airport
Location: Pampa,
Elevation: 3245 ft
Nearby Weather Stations

Elev 3245 ft 35.61 °N, 101.00 °W | Updated 26 minutes ago

Clear
Clear
57 °F
Feels Like 57 °F
N
4
Wind Variable Wind from East

Today
High -- | Low -- °F
--% Chance of Precip.
Yesterday
High -- | Low -- °F
Precip. -- in
Pressure 30.23 in
Visibility 10.0 miles
Clouds Clear
Dew Point 30 °F
Humidity 36%
Rainfall 0.00 in
Snow Depth Not available.
7:35 AM 6:21 PM
Waxing Crescent, 13% visible
METAR KPPA 111755Z AUTO 10003KT 10SM CLR 14/M01 A3023 RMK AO2 T01371013 10137 21004
Pressure 30.23 in
Visibility 10.0 miles
Clouds Clear
Dew Point 30 °F
Humidity 36%
Rainfall 0.00 in
Snow Depth Not available.
7:35 AM 6:21 PM
Waxing Crescent, 13% visible
METAR KPPA 111755Z AUTO 10003KT 10SM CLR 14/M01 A3023 RMK AO2 T01371013 10137 21004

10-Day Weather Forecast

Almanac

Astronomy

Feb. 11, 2016 Rise Set
Actual Time
Civil Twilight
Nautical Twilight
Astronomical Twilight
Moon
Length of Visible Light
Length of Day
Tomorrow will be .
, % of the Moon is Illuminated

Today's Extremes

State Highs State Lows

Community

WunderPhotos

Upload Photos

1,892,122 photos uploaded!

WunderBlog® & News

Nearby

Air Quality

  Air Quality AQ Index Pollutant
Not available.

Snow Depth

Station Depth Elevation

Earthquake Activity

City Distance Mag. Time & Date
Minimum magnitude displayed is 2.5.

Coastal Water Temperatures

Place Temperature

Stations

Nearby Weather Stations

Station Location Temp. Windchill Dew Point Humidity Wind Precip. Elev Updated Type
                   

Watches & Warnings

There are currently no watches in effect.